Time;durP1;ratioP1;P1;durP2;ratioP2;P2;SDS_P1;SDS_P2;PMS_P1;PMS_P2;Temp;Humidity;BMP_temperature;BMP_pressure;BME280_temperature;BME280_humidity;BME280_pressure;Samples;Min_cycle;Max_cycle;Signal;HPM_P1;HPM_P2
2021/03/25 00:00:25;;;;;;;42.20;23.20;;;;;;;;;;5016783;28;20404;-52
2021/03/25 00:02:52;;;;;;;49.60;23.03;;;;;;;;;;5016894;28;20396;-52
2021/03/25 00:05:20;;;;;;;54.00;26.33;;;;;;;;;;5017382;28;20404;-53
2021/03/25 00:07:46;;;;;;;55.10;25.93;;;;;;;;;;5014963;28;20439;-52
2021/03/25 00:10:15;;;;;;;48.70;22.93;;;;;;;;;;5016665;28;20504;-52
2021/03/25 00:12:41;;;;;;;44.50;21.97;;;;;;;;;;5015410;28;20470;-54
2021/03/25 00:15:08;;;;;;;39.53;21.90;;;;;;;;;;5014482;28;20551;-52
2021/03/25 00:17:34;;;;;;;45.43;21.23;;;;;;;;;;5017460;28;20463;-53
2021/03/25 00:20:00;;;;;;;40.23;19.37;;;;;;;;;;5017918;28;20432;-52
2021/03/25 00:22:26;;;;;;;40.57;20.50;;;;;;;;;;5017364;28;20431;-53
2021/03/25 00:24:52;;;;;;;41.10;20.23;;;;;;;;;;5017528;28;20843;-53
2021/03/25 00:27:18;;;;;;;47.83;22.27;;;;;;;;;;5017425;28;20405;-52
2021/03/25 00:29:44;;;;;;;42.30;21.83;;;;;;;;;;5017766;28;20409;-51
2021/03/25 00:32:10;;;;;;;48.00;20.40;;;;;;;;;;5017721;28;20194;-53
2021/03/25 00:34:36;;;;;;;36.07;21.67;;;;;;;;;;5018563;28;20403;-52
2021/03/25 00:37:02;;;;;;;36.53;20.03;;;;;;;;;;5018104;28;20474;-52
2021/03/25 00:39:28;;;;;;;33.03;21.13;;;;;;;;;;5013492;28;20404;-52
2021/03/25 00:41:53;;;;;;;42.10;20.60;;;;;;;;;;5010434;28;20452;-50
2021/03/25 00:44:19;;;;;;;40.83;19.03;;;;;;;;;;5010599;28;20427;-51
2021/03/25 00:46:45;;;;;;;39.20;20.37;;;;;;;;;;5010561;28;20415;-51
2021/03/25 00:49:12;;;;;;;40.57;20.93;;;;;;;;;;5010221;28;20404;-51
2021/03/25 00:51:38;;;;;;;39.72;19.77;;;;;;;;;;5010398;28;20438;-50
2021/03/25 00:54:04;;;;;;;32.40;18.63;;;;;;;;;;5010333;28;20173;-50
2021/03/25 00:56:30;;;;;;;36.90;20.65;;;;;;;;;;5013306;28;20505;-50
2021/03/25 00:58:56;;;;;;;32.92;19.63;;;;;;;;;;5013794;28;20247;-50
2021/03/25 01:01:22;;;;;;;38.57;20.27;;;;;;;;;;5014084;28;20226;-50
2021/03/25 01:03:48;;;;;;;35.47;19.38;;;;;;;;;;5013993;28;20415;-50
2021/03/25 01:06:14;;;;;;;35.70;18.57;;;;;;;;;;5014017;28;20178;-50
2021/03/25 01:08:40;;;;;;;42.03;21.17;;;;;;;;;;5012631;28;20434;-50
2021/03/25 01:11:15;;;;;;;42.70;19.37;;;;;;;;;;5013854;28;20683;-51
2021/03/25 01:13:49;;;;;;;40.45;22.08;;;;;;;;;;5013948;28;21080;-50
2021/03/25 01:16:17;;;;;;;45.65;21.73;;;;;;;;;;5013806;28;20200;-51
2021/03/25 01:18:43;;;;;;;37.55;19.67;;;;;;;;;;5013417;28;20262;-52
2021/03/25 01:21:10;;;;;;;43.00;21.33;;;;;;;;;;5013728;28;20225;-53
2021/03/25 01:23:36;;;;;;;41.00;22.13;;;;;;;;;;5013580;28;20399;-53
2021/03/25 01:26:02;;;;;;;49.20;21.75;;;;;;;;;;5013792;28;20260;-52
2021/03/25 01:28:28;;;;;;;49.83;20.98;;;;;;;;;;5013438;28;20200;-52
2021/03/25 01:30:54;;;;;;;46.40;20.70;;;;;;;;;;5013596;28;20610;-52
2021/03/25 01:33:21;;;;;;;40.70;18.40;;;;;;;;;;5013707;28;20404;-51
2021/03/25 01:35:47;;;;;;;36.90;19.95;;;;;;;;;;5013654;28;20455;-50
2021/03/25 01:38:14;;;;;;;34.03;19.07;;;;;;;;;;5012196;28;20231;-50
2021/03/25 01:40:44;;;;;;;47.15;20.42;;;;;;;;;;5013169;28;21160;-50
2021/03/25 01:43:10;;;;;;;38.90;21.25;;;;;;;;;;5013481;28;20303;-52
2021/03/25 01:45:37;;;;;;;34.67;18.83;;;;;;;;;;5013185;28;20159;-52
2021/03/25 01:48:03;;;;;;;39.05;20.17;;;;;;;;;;5012972;28;20455;-51
2021/03/25 01:50:29;;;;;;;35.70;19.35;;;;;;;;;;5012969;28;20161;-51
2021/03/25 01:53:04;;;;;;;34.63;20.07;;;;;;;;;;5013139;28;20176;-51
2021/03/25 01:55:36;;;;;;;35.50;19.42;;;;;;;;;;5012879;28;20498;-50
2021/03/25 01:58:11;;;;;;;42.35;21.30;;;;;;;;;;5012827;28;20168;-51
2021/03/25 02:00:40;;;;;;;33.42;19.85;;;;;;;;;;5012750;28;20213;-51
2021/03/25 02:03:24;;;;;;;40.40;20.55;;;;;;;;;;5012429;28;20172;-51
2021/03/25 02:06:05;;;;;;;37.63;20.52;;;;;;;;;;5012336;28;20182;-50
2021/03/25 02:08:43;;;;;;;34.45;19.25;;;;;;;;;;5010517;28;20610;-51
2021/03/25 02:11:14;;;;;;;33.72;19.45;;;;;;;;;;5012619;28;20203;-51
2021/03/25 02:13:48;;;;;;;41.00;21.85;;;;;;;;;;5012797;28;20176;-52
2021/03/25 02:16:27;;;;;;;45.72;22.63;;;;;;;;;;5012580;28;20202;-51
2021/03/25 02:19:02;;;;;;;50.00;21.40;;;;;;;;;;5011540;28;20211;-50
2021/03/25 02:21:46;;;;;;;39.63;20.35;;;;;;;;;;5012404;28;20271;-52
2021/03/25 02:24:24;;;;;;;41.38;21.13;;;;;;;;;;5012568;28;20696;-50
2021/03/25 02:26:50;;;;;;;39.90;21.45;;;;;;;;;;5012447;28;20164;-50
2021/03/25 02:29:44;;;;;;;41.53;21.43;;;;;;;;;;5012192;28;20248;-51
2021/03/25 02:32:12;;;;;;;43.15;21.95;;;;;;;;;;5012250;28;20939;-51
2021/03/25 02:34:41;;;;;;;36.95;19.58;;;;;;;;;;5012272;28;20652;-52
2021/03/25 02:37:10;;;;;;;40.70;20.63;;;;;;;;;;5010980;28;20211;-50
2021/03/25 02:39:39;;;;;;;45.00;22.95;;;;;;;;;;4992425;28;20169;-52
2021/03/25 02:42:07;;;;;;;40.45;21.33;;;;;;;;;;4992350;28;20584;-52
2021/03/25 02:44:39;;;;;;;40.22;21.63;;;;;;;;;;4992623;28;20175;-50
2021/03/25 02:47:10;;;;;;;47.65;21.70;;;;;;;;;;4992485;28;20177;-51
2021/03/25 02:49:47;;;;;;;44.08;22.42;;;;;;;;;;4992297;28;20172;-52
2021/03/25 02:52:17;;;;;;;39.40;22.27;;;;;;;;;;4992372;28;20202;-50
2021/03/25 02:54:43;;;;;;;51.70;23.13;;;;;;;;;;4992382;28;20177;-50
2021/03/25 02:57:11;;;;;;;48.40;24.73;;;;;;;;;;4992301;28;20202;-51
2021/03/25 02:59:39;;;;;;;38.70;21.65;;;;;;;;;;4992117;28;20683;-52
2021/03/25 03:02:23;;;;;;;43.70;22.20;;;;;;;;;;4992347;28;20643;-51
2021/03/25 03:04:52;;;;;;;41.40;22.10;;;;;;;;;;4992245;28;20176;-52
2021/03/25 03:07:25;;;;;;;44.40;21.13;;;;;;;;;;4992050;28;20196;-51
2021/03/25 03:09:53;;;;;;;47.22;21.23;;;;;;;;;;5011423;28;20176;-50
2021/03/25 03:12:23;;;;;;;39.78;21.15;;;;;;;;;;5011680;28;20246;-51
2021/03/25 03:14:53;;;;;;;43.08;21.10;;;;;;;;;;5011647;28;20164;-51
2021/03/25 03:17:22;;;;;;;45.45;21.13;;;;;;;;;;5011476;28;20610;-53
2021/03/25 03:20:07;;;;;;;47.33;22.52;;;;;;;;;;5011645;28;20695;-50
2021/03/25 03:22:34;;;;;;;43.78;21.45;;;;;;;;;;5011951;28;20203;-52
2021/03/25 03:25:00;;;;;;;58.80;25.20;;;;;;;;;;5011631;28;20169;-50
2021/03/25 03:27:30;;;;;;;61.17;26.95;;;;;;;;;;5011466;28;20168;-50
2021/03/25 03:29:59;;;;;;;62.20;28.20;;;;;;;;;;5011309;28;20535;-50
2021/03/25 03:32:34;;;;;;;52.13;28.35;;;;;;;;;;5011295;28;20195;-52
2021/03/25 03:35:06;;;;;;;38.28;20.77;;;;;;;;;;5011284;28;20677;-50
2021/03/25 03:37:37;;;;;;;41.53;21.27;;;;;;;;;;5011053;28;20214;-51
2021/03/25 03:40:07;;;;;;;52.53;22.65;;;;;;;;;;5010159;28;20264;-50
2021/03/25 03:42:33;;;;;;;41.33;21.42;;;;;;;;;;5011053;28;20212;-52
2021/03/25 03:45:00;;;;;;;45.30;22.15;;;;;;;;;;5011159;28;20168;-51
2021/03/25 03:47:28;;;;;;;41.35;22.10;;;;;;;;;;5010974;28;20202;-50
2021/03/25 03:50:05;;;;;;;37.45;19.50;;;;;;;;;;5010936;28;20172;-50
2021/03/25 03:52:33;;;;;;;43.35;21.33;;;;;;;;;;5011129;28;20196;-50
2021/03/25 03:55:00;;;;;;;40.22;20.05;;;;;;;;;;5010923;28;20168;-51
2021/03/25 03:57:29;;;;;;;42.58;21.35;;;;;;;;;;5010776;28;20200;-52
2021/03/25 03:59:55;;;;;;;43.67;21.13;;;;;;;;;;5010863;28;20164;-50
2021/03/25 04:02:29;;;;;;;40.30;21.38;;;;;;;;;;5010890;28;20715;-50
2021/03/25 04:05:05;;;;;;;49.20;21.60;;;;;;;;;;5010880;28;20610;-51
2021/03/25 04:07:34;;;;;;;56.55;21.65;;;;;;;;;;5009897;28;20180;-50
2021/03/25 04:10:09;;;;;;;36.72;19.85;;;;;;;;;;5010760;28;20632;-51
2021/03/25 04:12:38;;;;;;;38.35;21.55;;;;;;;;;;5010887;28;20196;-50
2021/03/25 04:15:18;;;;;;;45.88;22.13;;;;;;;;;;5010891;28;20265;-53
2021/03/25 04:17:46;;;;;;;48.97;22.20;;;;;;;;;;5010629;28;20249;-51
2021/03/25 04:20:14;;;;;;;42.58;22.65;;;;;;;;;;5010771;28;20173;-51
2021/03/25 04:22:46;;;;;;;40.95;19.58;;;;;;;;;;5009428;28;20691;-50
2021/03/25 04:25:19;;;;;;;43.63;23.25;;;;;;;;;;5010847;28;20531;-50
2021/03/25 04:27:55;;;;;;;40.58;22.25;;;;;;;;;;5010645;28;20594;-51
2021/03/25 04:30:24;;;;;;;46.83;21.33;;;;;;;;;;5012001;28;20186;-51
2021/03/25 04:32:50;;;;;;;44.13;21.92;;;;;;;;;;5014530;28;20545;-53
2021/03/25 04:35:17;;;;;;;46.47;20.83;;;;;;;;;;5014596;28;20226;-51
2021/03/25 04:37:43;;;;;;;46.72;22.00;;;;;;;;;;5012426;28;20291;-50
2021/03/25 04:40:13;;;;;;;37.42;19.85;;;;;;;;;;5014448;28;20179;-50
2021/03/25 04:42:40;;;;;;;41.88;20.73;;;;;;;;;;5014215;28;20199;-50
2021/03/25 04:45:25;;;;;;;47.50;21.50;;;;;;;;;;5014354;28;20711;-51
2021/03/25 04:47:52;;;;;;;40.75;20.73;;;;;;;;;;5014027;28;20184;-51
2021/03/25 04:50:24;;;;;;;31.98;16.05;;;;;;;;;;5014271;28;20172;-51
2021/03/25 04:52:50;;;;;;;38.22;17.95;;;;;;;;;;5014276;28;20199;-50
2021/03/25 04:55:21;;;;;;;33.47;17.77;;;;;;;;;;5014286;28;20174;-50
2021/03/25 04:57:51;;;;;;;44.17;18.75;;;;;;;;;;5013910;28;20199;-50
2021/03/25 05:00:19;;;;;;;43.63;19.92;;;;;;;;;;5014129;28;20164;-51
2021/03/25 05:02:45;;;;;;;38.55;20.23;;;;;;;;;;5014036;28;20597;-53
2021/03/25 05:05:23;;;;;;;38.75;19.13;;;;;;;;;;5014167;28;20176;-53
2021/03/25 05:07:51;;;;;;;47.85;21.95;;;;;;;;;;5013823;28;20183;-50
2021/03/25 05:10:23;;;;;;;39.17;20.75;;;;;;;;;;5012942;28;20208;-50
2021/03/25 05:12:54;;;;;;;44.63;20.85;;;;;;;;;;5013886;28;20195;-52
2021/03/25 05:15:21;;;;;;;39.33;21.33;;;;;;;;;;5014074;28;20188;-50
2021/03/25 05:17:50;;;;;;;36.40;19.92;;;;;;;;;;5013496;28;20323;-50
2021/03/25 05:20:22;;;;;;;34.15;19.00;;;;;;;;;;5013729;28;20218;-50
2021/03/25 05:23:04;;;;;;;48.00;21.42;;;;;;;;;;5013860;28;20176;-53
2021/03/25 05:25:52;;;;;;;41.22;20.77;;;;;;;;;;5013775;28;20168;-51
2021/03/25 05:28:27;;;;;;;55.05;22.95;;;;;;;;;;5013378;28;20259;-53
2021/03/25 05:30:53;;;;;;;34.80;20.55;;;;;;;;;;5013426;28;20762;-52
2021/03/25 05:33:22;;;;;;;36.88;21.48;;;;;;;;;;5013457;28;20267;-50
2021/03/25 05:35:56;;;;;;;49.40;24.23;;;;;;;;;;5013485;28;20199;-51
2021/03/25 05:38:23;;;;;;;38.63;20.60;;;;;;;;;;5013205;28;20229;-51
2021/03/25 05:40:52;;;;;;;46.70;22.10;;;;;;;;;;5011945;28;20204;-51
2021/03/25 05:43:33;;;;;;;43.30;20.65;;;;;;;;;;5012264;28;20598;-53
2021/03/25 05:46:05;;;;;;;41.15;22.38;;;;;;;;;;5013230;28;20588;-51
2021/03/25 05:48:43;;;;;;;47.42;23.70;;;;;;;;;;5012990;28;20222;-51
2021/03/25 05:51:17;;;;;;;41.47;22.80;;;;;;;;;;5013114;28;20188;-51
2021/03/25 05:53:52;;;;;;;45.20;20.85;;;;;;;;;;5012545;28;20674;-52
2021/03/25 05:56:37;;;;;;;49.45;24.23;;;;;;;;;;5012539;28;20208;-52
2021/03/25 05:59:09;;;;;;;52.50;26.75;;;;;;;;;;5012220;28;20186;-50
2021/03/25 06:01:35;;;;;;;58.25;26.90;;;;;;;;;;5012210;28;20188;-50
2021/03/25 06:04:20;;;;;;;52.60;26.03;;;;;;;;;;5012531;28;20646;-50
2021/03/25 06:07:08;;;;;;;52.65;28.15;;;;;;;;;;5012570;28;20813;-51
2021/03/25 06:09:37;;;;;;;53.42;27.92;;;;;;;;;;5010961;28;20179;-51
2021/03/25 06:12:12;;;;;;;66.72;26.38;;;;;;;;;;5011439;28;20208;-50
2021/03/25 06:14:38;;;;;;;49.63;26.25;;;;;;;;;;5011943;28;20164;-51
2021/03/25 06:17:07;;;;;;;49.73;25.83;;;;;;;;;;5012012;28;20203;-51
2021/03/25 06:19:36;;;;;;;48.35;25.73;;;;;;;;;;5011699;28;20983;-50
2021/03/25 06:22:19;;;;;;;57.35;25.15;;;;;;;;;;5011905;28;20257;-52
2021/03/25 06:24:45;;;;;;;51.95;28.25;;;;;;;;;;5012618;28;20187;-51
2021/03/25 06:27:23;;;;;;;58.57;29.17;;;;;;;;;;5012405;28;20164;-52
2021/03/25 06:29:51;;;;;;;53.05;27.92;;;;;;;;;;5012493;28;20407;-52
2021/03/25 06:32:26;;;;;;;53.03;26.60;;;;;;;;;;5012218;28;20668;-52
2021/03/25 06:34:56;;;;;;;49.03;27.42;;;;;;;;;;5012380;28;20805;-51
2021/03/25 06:37:31;;;;;;;58.78;31.23;;;;;;;;;;5011980;28;20758;-51
2021/03/25 06:40:05;;;;;;;53.83;30.00;;;;;;;;;;5011853;28;20816;-51
2021/03/25 06:42:36;;;;;;;53.53;27.23;;;;;;;;;;5012091;28;20218;-51
2021/03/25 06:45:11;;;;;;;54.87;28.77;;;;;;;;;;5012392;28;20420;-51
2021/03/25 06:47:37;;;;;;;58.77;28.53;;;;;;;;;;5012001;28;20410;-54
2021/03/25 06:50:04;;;;;;;56.43;27.90;;;;;;;;;;5012054;28;20409;-51
2021/03/25 06:52:32;;;;;;;61.47;27.13;;;;;;;;;;5011852;28;20433;-51
2021/03/25 06:55:01;;;;;;;49.70;25.70;;;;;;;;;;5012038;28;20416;-53
2021/03/25 06:57:34;;;;;;;46.40;23.70;;;;;;;;;;5011930;28;20565;-52
2021/03/25 07:00:00;;;;;;;46.73;25.30;;;;;;;;;;5011877;28;20466;-52
2021/03/25 07:02:26;;;;;;;51.63;25.47;;;;;;;;;;5011768;28;20497;-51
2021/03/25 07:04:53;;;;;;;55.00;26.87;;;;;;;;;;5011792;28;20903;-51
2021/03/25 07:07:22;;;;;;;51.30;26.30;;;;;;;;;;5011226;28;20493;-52
2021/03/25 07:09:48;;;;;;;60.33;27.27;;;;;;;;;;5009927;28;20433;-51
2021/03/25 07:12:19;;;;;;;49.67;27.20;;;;;;;;;;5011612;28;20461;-52
2021/03/25 07:14:46;;;;;;;47.37;24.77;;;;;;;;;;5011636;28;20410;-51
2021/03/25 07:17:14;;;;;;;44.47;23.80;;;;;;;;;;5010626;28;20452;-53
2021/03/25 07:19:41;;;;;;;46.57;25.63;;;;;;;;;;5011245;28;20765;-50
2021/03/25 07:22:31;;;;;;;44.17;24.50;;;;;;;;;;5011509;28;20421;-53
2021/03/25 07:25:19;;;;;;;46.27;23.43;;;;;;;;;;5008627;28;20822;-52
2021/03/25 07:27:45;;;;;;;46.90;26.10;;;;;;;;;;5011302;28;20399;-51
2021/03/25 07:30:12;;;;;;;50.93;27.30;;;;;;;;;;5011281;28;20459;-51
2021/03/25 07:32:55;;;;;;;57.20;27.57;;;;;;;;;;5011507;28;20530;-51
2021/03/25 07:35:33;;;;;;;52.03;30.50;;;;;;;;;;5011317;28;20409;-51
2021/03/25 07:38:00;;;;;;;57.17;31.27;;;;;;;;;;5011042;28;20476;-53
2021/03/25 07:40:32;;;;;;;65.40;32.47;;;;;;;;;;5010104;28;20418;-51
2021/03/25 07:43:11;;;;;;;50.50;30.00;;;;;;;;;;5011085;28;20423;-51
2021/03/25 07:45:37;;;;;;;55.10;29.57;;;;;;;;;;5011145;28;20397;-51
2021/03/25 07:48:14;;;;;;;50.57;28.60;;;;;;;;;;5010930;28;20808;-52
2021/03/25 07:50:40;;;;;;;46.60;26.10;;;;;;;;;;5011010;28;20402;-52
2021/03/25 07:53:36;;;;;;;57.13;30.03;;;;;;;;;;5011085;28;20972;-51
2021/03/25 07:56:09;;;;;;;48.83;27.30;;;;;;;;;;5006537;28;20885;-52
2021/03/25 07:58:40;;;;;;;50.37;26.57;;;;;;;;;;5010768;28;20413;-51
2021/03/25 08:01:25;;;;;;;45.93;27.23;;;;;;;;;;5010863;28;20943;-53
2021/03/25 08:03:58;;;;;;;45.60;25.50;;;;;;;;;;5011058;28;20743;-51
2021/03/25 08:06:29;;;;;;;43.83;25.60;;;;;;;;;;5010250;28;20486;-53
2021/03/25 08:08:59;;;;;;;43.00;25.67;;;;;;;;;;5010734;28;20973;-51
2021/03/25 08:11:25;;;;;;;50.97;26.37;;;;;;;;;;5009655;28;20508;-52
2021/03/25 08:13:54;;;;;;;48.53;28.13;;;;;;;;;;5009405;28;21021;-51
2021/03/25 08:16:21;;;;;;;49.77;27.20;;;;;;;;;;4997270;28;20479;-51
2021/03/25 08:18:56;;;;;;;49.50;27.57;;;;;;;;;;4991085;28;20479;-53
2021/03/25 08:21:28;;;;;;;47.73;28.40;;;;;;;;;;4991030;28;20433;-52
2021/03/25 08:24:08;;;;;;;49.43;27.73;;;;;;;;;;4991026;28;20407;-51
2021/03/25 08:26:52;;;;;;;49.27;28.00;;;;;;;;;;4991139;28;20411;-51
2021/03/25 08:29:21;;;;;;;55.50;28.07;;;;;;;;;;4990943;28;20413;-51
2021/03/25 08:31:54;;;;;;;45.60;27.67;;;;;;;;;;4991041;28;20426;-53
2021/03/25 08:34:23;;;;;;;45.40;27.37;;;;;;;;;;4991085;28;20411;-52
2021/03/25 08:36:56;;;;;;;43.47;26.03;;;;;;;;;;4991085;28;20458;-51
2021/03/25 08:39:26;;;;;;;55.83;25.57;;;;;;;;;;4990839;28;20396;-51
2021/03/25 08:42:19;;;;;;;50.80;24.20;;;;;;;;;;5002356;28;20462;-50
2021/03/25 08:44:55;;;;;;;47.80;27.20;;;;;;;;;;5002152;28;20414;-51
2021/03/25 08:47:27;;;;;;;39.27;24.87;;;;;;;;;;5010435;28;20462;-51
2021/03/25 08:50:11;;;;;;;45.07;25.97;;;;;;;;;;5010261;28;20902;-52
2021/03/25 08:52:38;;;;;;;43.30;27.37;;;;;;;;;;5008859;28;20426;-52
2021/03/25 08:55:25;;;;;;;45.57;26.73;;;;;;;;;;5007900;28;20419;-52
2021/03/25 08:57:54;;;;;;;46.30;27.07;;;;;;;;;;4992270;28;20967;-51
2021/03/25 09:00:26;;;;;;;42.23;26.80;;;;;;;;;;4991038;28;20824;-54
2021/03/25 09:03:12;;;;;;;46.53;26.20;;;;;;;;;;4990891;28;20422;-51
2021/03/25 09:05:47;;;;;;;43.17;26.70;;;;;;;;;;4986986;28;20469;-51
2021/03/25 09:08:14;;;;;;;50.60;28.60;;;;;;;;;;4990775;28;20414;-52
2021/03/25 09:10:46;;;;;;;50.17;29.13;;;;;;;;;;4990861;28;20888;-53
2021/03/25 09:13:14;;;;;;;47.43;27.80;;;;;;;;;;5008278;28;20431;-53
2021/03/25 09:15:41;;;;;;;51.60;28.47;;;;;;;;;;5010530;28;20498;-51
2021/03/25 09:18:08;;;;;;;50.77;28.43;;;;;;;;;;5013754;28;20754;-51
2021/03/25 09:20:36;;;;;;;46.00;27.50;;;;;;;;;;5013714;28;20428;-51
2021/03/25 09:23:21;;;;;;;43.63;27.70;;;;;;;;;;5013845;28;20390;-51
2021/03/25 09:25:47;;;;;;;50.17;28.70;;;;;;;;;;5013681;28;20382;-51
2021/03/25 09:28:20;;;;;;;45.53;28.93;;;;;;;;;;5013500;28;20407;-51
2021/03/25 09:30:48;;;;;;;55.37;29.23;;;;;;;;;;5013556;28;20402;-52
2021/03/25 09:33:32;;;;;;;51.93;28.77;;;;;;;;;;5013655;28;20407;-52
2021/03/25 09:35:58;;;;;;;52.73;28.87;;;;;;;;;;5013401;28;20414;-51
2021/03/25 09:38:29;;;;;;;54.13;28.50;;;;;;;;;;5013282;28;20763;-51
2021/03/25 09:40:55;;;;;;;49.93;29.13;;;;;;;;;;5012271;28;20420;-51
2021/03/25 09:43:27;;;;;;;55.33;31.23;;;;;;;;;;5013701;28;20412;-51
2021/03/25 09:45:55;;;;;;;44.20;28.20;;;;;;;;;;5013311;28;20446;-51
2021/03/25 09:48:28;;;;;;;54.07;29.00;;;;;;;;;;5012983;28;20409;-51
2021/03/25 09:51:03;;;;;;;50.07;28.83;;;;;;;;;;5013120;28;20392;-52
2021/03/25 09:53:29;;;;;;;50.93;30.37;;;;;;;;;;5013166;28;20406;-51
2021/03/25 09:56:02;;;;;;;50.70;28.33;;;;;;;;;;5013002;28;20395;-51
2021/03/25 09:58:45;;;;;;;50.60;28.37;;;;;;;;;;5012705;28;20395;-52
2021/03/25 10:01:31;;;;;;;50.60;28.53;;;;;;;;;;5012605;28;20960;-52
2021/03/25 10:03:59;;;;;;;46.77;31.27;;;;;;;;;;5012882;28;20401;-52
2021/03/25 10:06:44;;;;;;;46.77;27.53;;;;;;;;;;5013029;28;20460;-51
2021/03/25 10:09:10;;;;;;;47.40;28.87;;;;;;;;;;5012677;28;20399;-53
2021/03/25 10:11:46;;;;;;;56.27;32.23;;;;;;;;;;5011669;28;20798;-51
2021/03/25 10:14:30;;;;;;;46.77;31.30;;;;;;;;;;5012746;28;20399;-52
2021/03/25 10:16:56;;;;;;;52.10;30.17;;;;;;;;;;5011099;28;20997;-52
2021/03/25 10:19:41;;;;;;;47.60;30.73;;;;;;;;;;5012314;28;20374;-53
2021/03/25 10:22:16;;;;;;;55.20;32.63;;;;;;;;;;5012416;28;20422;-52
2021/03/25 10:24:52;;;;;;;46.20;30.70;;;;;;;;;;5012393;28;20453;-52
2021/03/25 10:27:23;;;;;;;54.80;33.67;;;;;;;;;;5012069;28;20870;-52
2021/03/25 10:29:50;;;;;;;55.47;33.07;;;;;;;;;;5012203;28;20772;-52
2021/03/25 10:32:24;;;;;;;63.37;33.00;;;;;;;;;;5011199;28;20482;-52
2021/03/25 10:34:53;;;;;;;55.77;33.43;;;;;;;;;;5012311;28;20422;-52
2021/03/25 10:37:28;;;;;;;51.93;33.30;;;;;;;;;;5011977;28;20454;-56
2021/03/25 10:40:02;;;;;;;53.60;34.17;;;;;;;;;;5012068;28;20498;-51
2021/03/25 10:42:32;;;;;;;55.27;33.40;;;;;;;;;;5012138;28;20446;-52
2021/03/25 10:45:12;;;;;;;56.10;35.17;;;;;;;;;;5012261;28;20403;-54
2021/03/25 10:47:39;;;;;;;51.37;34.50;;;;;;;;;;5011989;28;20953;-53
2021/03/25 10:50:06;;;;;;;49.47;31.63;;;;;;;;;;5011967;28;20403;-53
2021/03/25 10:52:35;;;;;;;50.30;33.90;;;;;;;;;;5010596;28;20438;-52
2021/03/25 10:55:14;;;;;;;53.47;33.97;;;;;;;;;;5011855;28;20414;-54
2021/03/25 10:57:40;;;;;;;55.47;32.90;;;;;;;;;;5011555;28;20463;-52
2021/03/25 11:00:06;;;;;;;55.07;33.93;;;;;;;;;;5011533;28;20422;-52
2021/03/25 11:02:40;;;;;;;44.13;31.67;;;;;;;;;;5010600;28;20459;-52
2021/03/25 11:05:26;;;;;;;51.07;35.00;;;;;;;;;;5011761;28;20826;-52
2021/03/25 11:07:54;;;;;;;49.83;33.13;;;;;;;;;;5011614;28;20521;-52
2021/03/25 11:10:34;;;;;;;52.33;34.63;;;;;;;;;;5011614;28;20403;-52
2021/03/25 11:13:03;;;;;;;49.37;32.60;;;;;;;;;;5011829;28;20410;-52
2021/03/25 11:15:31;;;;;;;53.80;34.37;;;;;;;;;;5011702;28;20407;-51
2021/03/25 11:17:57;;;;;;;56.20;36.17;;;;;;;;;;5011475;28;20990;-55
2021/03/25 11:20:25;;;;;;;50.60;36.47;;;;;;;;;;5011556;28;20399;-54
2021/03/25 11:22:51;;;;;;;60.27;38.43;;;;;;;;;;5011670;28;20775;-52
2021/03/25 11:25:22;;;;;;;50.93;35.60;;;;;;;;;;5011585;28;20434;-52
2021/03/25 11:27:48;;;;;;;49.87;34.90;;;;;;;;;;5011584;28;21124;-54
2021/03/25 11:30:26;;;;;;;53.53;37.40;;;;;;;;;;5011427;28;20435;-52
2021/03/25 11:32:52;;;;;;;54.80;36.50;;;;;;;;;;5010400;28;20522;-54
2021/03/25 11:35:21;;;;;;;54.13;37.93;;;;;;;;;;5011374;28;20403;-55
2021/03/25 11:37:47;;;;;;;58.40;37.60;;;;;;;;;;5011094;28;20986;-53
2021/03/25 11:40:15;;;;;;;51.10;36.23;;;;;;;;;;5010266;28;20426;-52
2021/03/25 11:42:42;;;;;;;57.40;36.77;;;;;;;;;;5011160;28;20482;-52
2021/03/25 11:45:28;;;;;;;53.73;37.30;;;;;;;;;;5011261;28;20449;-52
2021/03/25 11:47:54;;;;;;;48.43;35.77;;;;;;;;;;5010962;28;20411;-53
2021/03/25 11:50:20;;;;;;;59.97;35.27;;;;;;;;;;5011140;28;20402;-52
2021/03/25 11:52:48;;;;;;;54.60;37.37;;;;;;;;;;5011004;28;20423;-52
2021/03/25 11:55:20;;;;;;;61.37;39.70;;;;;;;;;;5011126;28;20462;-52
2021/03/25 11:57:46;;;;;;;48.97;34.77;;;;;;;;;;5010858;28;20546;-52
2021/03/25 12:00:14;;;;;;;52.57;33.77;;;;;;;;;;5010996;28;21105;-52
2021/03/25 12:02:41;;;;;;;51.40;34.93;;;;;;;;;;5009909;28;20451;-52
2021/03/25 12:05:25;;;;;;;47.53;33.40;;;;;;;;;;5010860;28;20407;-52
2021/03/25 12:08:09;;;;;;;40.77;30.07;;;;;;;;;;5010758;28;20411;-52
2021/03/25 12:10:35;;;;;;;47.63;32.50;;;;;;;;;;5009669;28;20835;-52
2021/03/25 12:13:01;;;;;;;46.73;33.33;;;;;;;;;;5010754;28;20403;-52
2021/03/25 12:15:29;;;;;;;56.77;36.80;;;;;;;;;;5010893;28;20407;-52
2021/03/25 12:17:56;;;;;;;47.13;33.60;;;;;;;;;;5010616;28;20455;-53
2021/03/25 12:20:27;;;;;;;40.47;30.60;;;;;;;;;;5010765;28;20486;-53
2021/03/25 12:23:14;;;;;;;43.57;31.53;;;;;;;;;;5010732;28;20399;-53
2021/03/25 12:25:40;;;;;;;40.37;30.80;;;;;;;;;;5010831;28;20434;-52
2021/03/25 12:28:07;;;;;;;45.40;28.77;;;;;;;;;;5010525;28;20994;-54
2021/03/25 12:30:33;;;;;;;36.83;28.20;;;;;;;;;;5010651;28;20433;-53
2021/03/25 12:33:00;;;;;;;39.57;28.33;;;;;;;;;;5009727;28;20459;-52
2021/03/25 12:35:26;;;;;;;39.37;28.87;;;;;;;;;;5009908;28;20449;-52
2021/03/25 12:37:52;;;;;;;39.27;26.97;;;;;;;;;;5009334;28;20961;-52
2021/03/25 12:40:20;;;;;;;41.10;28.57;;;;;;;;;;5011074;28;20791;-55
2021/03/25 12:42:46;;;;;;;36.67;27.23;;;;;;;;;;5010385;28;20976;-56
2021/03/25 12:45:25;;;;;;;35.40;27.37;;;;;;;;;;5010675;28;20418;-54
2021/03/25 12:47:51;;;;;;;34.70;25.20;;;;;;;;;;5007001;28;20395;-54
2021/03/25 12:50:17;;;;;;;26.37;21.13;;;;;;;;;;4990706;28;20510;-55
2021/03/25 12:52:43;;;;;;;34.20;23.27;;;;;;;;;;4994516;28;20435;-54
2021/03/25 12:55:09;;;;;;;33.57;25.03;;;;;;;;;;5013694;28;20783;-55
2021/03/25 12:57:35;;;;;;;27.37;21.50;;;;;;;;;;5014154;28;20503;-55
2021/03/25 13:00:01;;;;;;;34.90;23.90;;;;;;;;;;5014264;28;20399;-54
2021/03/25 13:02:28;;;;;;;30.80;21.20;;;;;;;;;;5014474;28;20421;-55
2021/03/25 13:04:54;;;;;;;31.30;23.10;;;;;;;;;;5014155;28;20409;-55
2021/03/25 13:07:20;;;;;;;29.90;19.83;;;;;;;;;;5013913;28;20740;-55
2021/03/25 13:09:46;;;;;;;23.60;18.63;;;;;;;;;;5013994;28;21105;-55
2021/03/25 13:12:16;;;;;;;25.83;18.70;;;;;;;;;;5014306;28;20453;-55
2021/03/25 13:14:42;;;;;;;28.27;20.30;;;;;;;;;;5014081;28;20407;-55
2021/03/25 13:17:08;;;;;;;19.60;14.77;;;;;;;;;;5013858;28;20573;-55
2021/03/25 13:19:34;;;;;;;18.90;13.73;;;;;;;;;;5013558;28;20395;-55
2021/03/25 13:22:00;;;;;;;19.77;14.47;;;;;;;;;;5013703;28;20498;-54
2021/03/25 13:24:26;;;;;;;18.70;14.70;;;;;;;;;;5012199;28;20426;-55
2021/03/25 13:26:51;;;;;;;21.90;14.70;;;;;;;;;;5013677;28;20411;-55
2021/03/25 13:29:17;;;;;;;16.57;14.07;;;;;;;;;;5013479;28;20407;-55
2021/03/25 13:31:43;;;;;;;15.80;13.87;;;;;;;;;;5012925;28;20449;-55
2021/03/25 13:34:09;;;;;;;19.13;11.77;;;;;;;;;;5013636;28;20399;-55
2021/03/25 13:36:35;;;;;;;20.67;13.50;;;;;;;;;;5013307;28;20872;-55
2021/03/25 13:39:01;;;;;;;23.07;14.83;;;;;;;;;;5013274;28;20387;-55
2021/03/25 13:41:27;;;;;;;17.07;14.53;;;;;;;;;;5013186;28;20522;-55
2021/03/25 13:43:53;;;;;;;18.47;14.40;;;;;;;;;;5013409;28;20403;-55
2021/03/25 13:46:19;;;;;;;18.70;13.07;;;;;;;;;;5013292;28;20407;-54
2021/03/25 13:48:45;;;;;;;17.17;12.40;;;;;;;;;;5013056;28;20434;-54
2021/03/25 13:51:11;;;;;;;17.17;13.30;;;;;;;;;;5013086;28;20783;-55
2021/03/25 13:53:37;;;;;;;21.13;13.93;;;;;;;;;;5012306;28;20435;-54
2021/03/25 13:56:04;;;;;;;21.33;16.57;;;;;;;;;;5013128;28;20871;-55
2021/03/25 13:58:30;;;;;;;20.33;15.20;;;;;;;;;;5012843;28;21051;-54
2021/03/25 14:00:56;;;;;;;18.17;13.30;;;;;;;;;;5012919;28;20477;-54
2021/03/25 14:03:23;;;;;;;15.23;12.90;;;;;;;;;;5011908;28;20399;-55
2021/03/25 14:05:49;;;;;;;19.73;13.67;;;;;;;;;;5012848;28;20826;-54
2021/03/25 14:08:16;;;;;;;18.50;13.53;;;;;;;;;;5012540;28;20490;-54
2021/03/25 14:10:42;;;;;;;19.80;14.33;;;;;;;;;;5012800;28;20431;-54
2021/03/25 14:13:10;;;;;;;22.93;16.67;;;;;;;;;;5012845;28;20465;-54
2021/03/25 14:15:40;;;;;;;21.50;17.43;;;;;;;;;;5012776;28;20408;-54
2021/03/25 14:18:07;;;;;;;17.20;13.90;;;;;;;;;;5012415;28;20454;-54
2021/03/25 14:20:33;;;;;;;21.20;13.63;;;;;;;;;;5012768;28;20415;-54
2021/03/25 14:22:59;;;;;;;18.80;15.17;;;;;;;;;;5012569;28;20403;-54
2021/03/25 14:25:27;;;;;;;21.03;14.27;;;;;;;;;;5011683;28;20423;-54
2021/03/25 14:27:54;;;;;;;19.60;11.70;;;;;;;;;;5012444;28;20410;-54
2021/03/25 14:30:20;;;;;;;18.87;12.63;;;;;;;;;;5009228;28;20438;-54
2021/03/25 14:32:46;;;;;;;16.57;12.90;;;;;;;;;;5010781;28;20501;-55
2021/03/25 14:35:13;;;;;;;19.77;13.67;;;;;;;;;;5012262;28;20503;-54